createdAt,value
2023-05-06T00:04:26.991Z,11.18
2023-05-06T00:14:31.208Z,11.14
2023-05-06T00:24:33.683Z,11.05
2023-05-06T00:34:41.618Z,11.00
2023-05-06T00:44:44.425Z,10.84
2023-05-06T00:54:46.346Z,10.83
2023-05-06T01:04:48.133Z,10.73
2023-05-06T01:15:33.622Z,10.61
2023-05-06T01:25:35.483Z,10.57
2023-05-06T01:36:15.287Z,10.47
2023-05-06T01:46:24.802Z,10.39
2023-05-06T01:56:27.177Z,10.21
2023-05-06T02:06:30.863Z,10.26
2023-05-06T02:16:32.692Z,10.18
2023-05-06T02:26:35.891Z,10.12
2023-05-06T02:36:39.627Z,10.10
2023-05-06T02:46:42.339Z,10.04
2023-05-06T02:56:50.256Z,9.97
2023-05-06T03:06:54.377Z,10.00
2023-05-06T03:16:59.295Z,10.00
2023-05-06T03:27:02.502Z,10.03
2023-05-06T03:37:04.354Z,10.15
2023-05-06T03:47:06.012Z,10.19
2023-05-06T03:57:07.646Z,10.23
2023-05-06T04:07:21.346Z,10.51
2023-05-06T04:17:23.133Z,10.99
2023-05-06T04:27:29.903Z,11.33
2023-05-06T04:37:32.012Z,11.63
2023-05-06T04:47:34.563Z,12.34
2023-05-06T04:57:36.414Z,12.80
2023-05-06T05:07:39.515Z,13.16
2023-05-06T05:17:41.877Z,13.30
2023-05-06T05:27:47.193Z,13.88
2023-05-06T05:37:50.301Z,14.27
2023-05-06T05:47:54.100Z,14.59
2023-05-06T05:57:59.103Z,15.12
2023-05-06T06:08:03.503Z,15.98
2023-05-06T06:18:17.544Z,16.64
2023-05-06T06:28:19.919Z,17.44
2023-05-06T06:38:23.211Z,17.85
2023-05-06T06:48:25.059Z,17.93
2023-05-06T06:58:30.632Z,18.21
2023-05-06T07:08:32.328Z,18.70
2023-05-06T07:18:36.413Z,20.06
2023-05-06T07:28:38.039Z,20.62
2023-05-06T07:38:41.568Z,20.83
2023-05-06T07:48:46.187Z,21.03
2023-05-06T07:58:49.510Z,20.43
2023-05-06T08:08:51.590Z,20.75
2023-05-06T08:18:53.489Z,21.80
2023-05-06T08:28:58.697Z,22.31
2023-05-06T08:39:01.446Z,22.45
2023-05-06T08:49:04.497Z,22.94
2023-05-06T08:59:10.472Z,23.30
2023-05-06T09:09:13.143Z,24.42
2023-05-06T09:19:23.747Z,24.29
2023-05-06T09:29:29.323Z,24.73
2023-05-06T09:39:31.229Z,27.79
2023-05-06T09:49:34.072Z,26.61
2023-05-06T09:59:44.372Z,26.74
2023-05-06T10:09:48.300Z,25.81
2023-05-06T10:19:52.617Z,26.63
2023-05-06T10:29:59.181Z,29.24
2023-05-06T10:40:07.308Z,31.01
2023-05-06T10:50:24.879Z,33.24
2023-05-06T11:00:36.860Z,27.71
2023-05-06T11:10:40.275Z,34.46
2023-05-06T11:20:42.094Z,28.19
2023-05-06T11:30:53.981Z,26.07
2023-05-06T11:40:57.976Z,28.98
2023-05-06T11:50:59.972Z,25.30
2023-05-06T12:01:03.400Z,24.40
2023-05-06T12:11:08.197Z,24.13
2023-05-06T12:21:10.164Z,23.33
2023-05-06T12:31:22.537Z,24.10
2023-05-06T12:41:35.136Z,23.46
2023-05-06T12:51:37.787Z,24.02
2023-05-06T13:01:41.056Z,23.36
2023-05-06T13:11:42.920Z,22.77
2023-05-06T13:21:46.468Z,22.86
2023-05-06T13:31:49.259Z,22.60
2023-05-06T13:41:51.789Z,22.15
2023-05-06T13:51:54.511Z,21.71
2023-05-06T14:01:56.591Z,22.11
2023-05-06T14:11:58.726Z,21.45
2023-05-06T14:22:00.559Z,21.06
2023-05-06T14:32:02.513Z,20.16
2023-05-06T14:42:04.393Z,19.62
2023-05-06T14:52:08.059Z,19.18
2023-05-06T15:02:10.564Z,18.73
2023-05-06T15:12:12.898Z,18.21
2023-05-06T15:22:16.921Z,18.50
2023-05-06T15:32:18.672Z,19.12
2023-05-06T15:42:25.821Z,19.57
2023-05-06T15:52:27.445Z,19.98
2023-05-06T16:02:32.928Z,21.82
2023-05-06T16:12:40.254Z,29.58
2023-05-06T16:22:41.989Z,25.41
2023-05-06T16:32:45.276Z,27.67
2023-05-06T16:42:49.478Z,22.09
2023-05-06T16:52:54.435Z,20.27
2023-05-06T17:03:03.939Z,19.34
2023-05-06T17:13:06.094Z,18.71
2023-05-06T17:23:07.785Z,18.39
2023-05-06T17:33:10.091Z,17.99
2023-05-06T17:43:12.227Z,17.76
2023-05-06T17:53:14.109Z,17.55
2023-05-06T18:03:15.810Z,17.37
2023-05-06T18:13:18.900Z,17.21
2023-05-06T18:23:23.097Z,17.19
2023-05-06T18:33:27.357Z,17.23
2023-05-06T18:43:33.326Z,17.05
2023-05-06T18:53:35.524Z,16.88
2023-05-06T19:03:41.588Z,16.61
2023-05-06T19:13:45.069Z,16.52
2023-05-06T19:23:47.218Z,16.51
2023-05-06T19:33:48.827Z,16.82
2023-05-06T19:43:51.388Z,16.86
2023-05-06T19:53:53.382Z,16.77
2023-05-06T20:03:57.166Z,16.79
2023-05-06T20:13:58.954Z,16.71
2023-05-06T20:24:00.855Z,16.78
2023-05-06T20:34:04.768Z,16.73
2023-05-06T20:44:07.696Z,16.66
2023-05-06T20:54:21.740Z,16.54
2023-05-06T21:04:26.589Z,16.41
2023-05-06T21:14:42.748Z,16.36
2023-05-06T21:24:44.470Z,16.32
2023-05-06T21:34:46.690Z,16.05
2023-05-06T21:44:55.759Z,15.63
2023-05-06T21:54:58.236Z,15.41
2023-05-06T22:05:01.940Z,15.15
2023-05-06T22:15:10.517Z,15.12
2023-05-06T22:25:14.354Z,15.52
2023-05-06T22:35:28.228Z,15.57
2023-05-06T22:45:29.901Z,15.82
2023-05-06T22:55:31.948Z,15.67
2023-05-06T23:05:34.767Z,15.34
2023-05-06T23:15:36.834Z,15.09
2023-05-06T23:25:38.595Z,15.26
2023-05-06T23:35:41.331Z,15.06
2023-05-06T23:45:43.204Z,14.99
2023-05-06T23:55:46.217Z,14.84
